sensor_id;sensor_type;location;lat;lon;timestamp;P1;durP1;ratioP1;P2;durP2;ratioP2
22826;SDS011;11580;52.562;13.418;2023-06-22T00:02:21;14.13;;;13.13;;
22826;SDS011;11580;52.562;13.418;2023-06-22T00:04:50;14.13;;;13.13;;
22826;SDS011;11580;52.562;13.418;2023-06-22T00:07:17;13.60;;;12.67;;
22826;SDS011;11580;52.562;13.418;2023-06-22T00:09:44;14.50;;;13.50;;
22826;SDS011;11580;52.562;13.418;2023-06-22T00:12:11;13.27;;;12.27;;
22826;SDS011;11580;52.562;13.418;2023-06-22T00:14:38;14.07;;;13.07;;
22826;SDS011;11580;52.562;13.418;2023-06-22T00:17:05;14.37;;;13.37;;
22826;SDS011;11580;52.562;13.418;2023-06-22T00:19:33;13.43;;;12.43;;
22826;SDS011;11580;52.562;13.418;2023-06-22T00:22:02;13.43;;;12.43;;
22826;SDS011;11580;52.562;13.418;2023-06-22T00:24:29;14.00;;;13.00;;
22826;SDS011;11580;52.562;13.418;2023-06-22T00:26:56;12.93;;;11.97;;
22826;SDS011;11580;52.562;13.418;2023-06-22T00:29:24;13.90;;;12.80;;
22826;SDS011;11580;52.562;13.418;2023-06-22T00:31:51;13.13;;;12.20;;
22826;SDS011;11580;52.562;13.418;2023-06-22T00:34:18;13.03;;;12.17;;
22826;SDS011;11580;52.562;13.418;2023-06-22T00:36:45;13.67;;;12.67;;
22826;SDS011;11580;52.562;13.418;2023-06-22T00:39:14;14.03;;;12.93;;
22826;SDS011;11580;52.562;13.418;2023-06-22T00:41:42;13.23;;;12.23;;
22826;SDS011;11580;52.562;13.418;2023-06-22T00:44:09;13.67;;;12.77;;
22826;SDS011;11580;52.562;13.418;2023-06-22T00:46:36;12.53;;;11.63;;
22826;SDS011;11580;52.562;13.418;2023-06-22T00:49:04;12.03;;;11.20;;
22826;SDS011;11580;52.562;13.418;2023-06-22T00:51:31;13.30;;;12.40;;
22826;SDS011;11580;52.562;13.418;2023-06-22T00:54:00;12.67;;;11.73;;
22826;SDS011;11580;52.562;13.418;2023-06-22T00:56:28;14.53;;;13.50;;
22826;SDS011;11580;52.562;13.418;2023-06-22T00:58:56;12.10;;;11.30;;
22826;SDS011;11580;52.562;13.418;2023-06-22T01:01:25;12.83;;;11.93;;
22826;SDS011;11580;52.562;13.418;2023-06-22T01:03:55;13.00;;;12.10;;
22826;SDS011;11580;52.562;13.418;2023-06-22T01:06:25;13.30;;;12.40;;
22826;SDS011;11580;52.562;13.418;2023-06-22T01:09:06;13.00;;;11.87;;
22826;SDS011;11580;52.562;13.418;2023-06-22T01:11:44;13.83;;;12.80;;
22826;SDS011;11580;52.562;13.418;2023-06-22T01:14:20;13.30;;;12.30;;
22826;SDS011;11580;52.562;13.418;2023-06-22T01:16:55;12.87;;;11.97;;
22826;SDS011;11580;52.562;13.418;2023-06-22T01:19:34;12.63;;;11.73;;
22826;SDS011;11580;52.562;13.418;2023-06-22T01:22:07;13.83;;;12.83;;
22826;SDS011;11580;52.562;13.418;2023-06-22T01:24:42;14.17;;;13.13;;
22826;SDS011;11580;52.562;13.418;2023-06-22T01:27:36;13.33;;;12.40;;
22826;SDS011;11580;52.562;13.418;2023-06-22T01:30:20;13.40;;;12.40;;
22826;SDS011;11580;52.562;13.418;2023-06-22T01:32:47;12.90;;;12.00;;
22826;SDS011;11580;52.562;13.418;2023-06-22T01:35:16;12.80;;;11.90;;
22826;SDS011;11580;52.562;13.418;2023-06-22T01:37:45;13.80;;;12.80;;
22826;SDS011;11580;52.562;13.418;2023-06-22T01:40:13;12.93;;;12.03;;
22826;SDS011;11580;52.562;13.418;2023-06-22T01:42:42;13.80;;;12.80;;
22826;SDS011;11580;52.562;13.418;2023-06-22T01:45:10;13.53;;;12.63;;
22826;SDS011;11580;52.562;13.418;2023-06-22T01:47:40;14.27;;;13.27;;
22826;SDS011;11580;52.562;13.418;2023-06-22T01:50:08;13.70;;;12.70;;
22826;SDS011;11580;52.562;13.418;2023-06-22T01:52:38;13.80;;;12.90;;
22826;SDS011;11580;52.562;13.418;2023-06-22T01:55:05;14.60;;;13.50;;
22826;SDS011;11580;52.562;13.418;2023-06-22T01:57:33;15.80;;;14.40;;
22826;SDS011;11580;52.562;13.418;2023-06-22T02:00:03;15.10;;;14.00;;
22826;SDS011;11580;52.562;13.418;2023-06-22T02:02:46;14.80;;;13.80;;
22826;SDS011;11580;52.562;13.418;2023-06-22T02:05:20;14.87;;;13.87;;
22826;SDS011;11580;52.562;13.418;2023-06-22T02:07:56;16.17;;;15.00;;
22826;SDS011;11580;52.562;13.418;2023-06-22T02:10:33;15.60;;;14.40;;
22826;SDS011;11580;52.562;13.418;2023-06-22T02:13:05;14.73;;;13.73;;
22826;SDS011;11580;52.562;13.418;2023-06-22T02:15:35;16.00;;;14.80;;
22826;SDS011;11580;52.562;13.418;2023-06-22T02:18:04;16.10;;;14.77;;
22826;SDS011;11580;52.562;13.418;2023-06-22T02:20:32;16.43;;;15.03;;
22826;SDS011;11580;52.562;13.418;2023-06-22T02:23:02;16.00;;;14.80;;
22826;SDS011;11580;52.562;13.418;2023-06-22T02:25:34;15.40;;;14.20;;
22826;SDS011;11580;52.562;13.418;2023-06-22T02:28:02;15.33;;;14.27;;
22826;SDS011;11580;52.562;13.418;2023-06-22T02:30:30;15.63;;;14.43;;
22826;SDS011;11580;52.562;13.418;2023-06-22T02:32:58;16.90;;;15.50;;
22826;SDS011;11580;52.562;13.418;2023-06-22T02:35:27;16.17;;;15.07;;
22826;SDS011;11580;52.562;13.418;2023-06-22T02:37:56;15.70;;;14.50;;
22826;SDS011;11580;52.562;13.418;2023-06-22T02:40:24;16.20;;;14.90;;
22826;SDS011;11580;52.562;13.418;2023-06-22T02:42:52;16.40;;;15.30;;
22826;SDS011;11580;52.562;13.418;2023-06-22T02:45:19;14.77;;;13.67;;
22826;SDS011;11580;52.562;13.418;2023-06-22T02:47:46;16.07;;;14.87;;
22826;SDS011;11580;52.562;13.418;2023-06-22T02:50:15;15.60;;;14.43;;
22826;SDS011;11580;52.562;13.418;2023-06-22T02:52:44;15.50;;;14.43;;
22826;SDS011;11580;52.562;13.418;2023-06-22T02:55:11;16.00;;;14.80;;
22826;SDS011;11580;52.562;13.418;2023-06-22T02:57:39;17.77;;;16.47;;
22826;SDS011;11580;52.562;13.418;2023-06-22T03:00:09;16.80;;;15.60;;
22826;SDS011;11580;52.562;13.418;2023-06-22T03:02:43;15.23;;;14.13;;
22826;SDS011;11580;52.562;13.418;2023-06-22T03:05:10;16.90;;;15.60;;
22826;SDS011;11580;52.562;13.418;2023-06-22T03:07:39;16.87;;;15.60;;
22826;SDS011;11580;52.562;13.418;2023-06-22T03:10:10;16.60;;;15.30;;
22826;SDS011;11580;52.562;13.418;2023-06-22T03:12:39;16.97;;;15.77;;
22826;SDS011;11580;52.562;13.418;2023-06-22T03:15:07;17.00;;;15.80;;
22826;SDS011;11580;52.562;13.418;2023-06-22T03:17:37;17.70;;;16.40;;
22826;SDS011;11580;52.562;13.418;2023-06-22T03:20:07;16.27;;;15.07;;
22826;SDS011;11580;52.562;13.418;2023-06-22T03:22:37;16.50;;;15.50;;
22826;SDS011;11580;52.562;13.418;2023-06-22T03:25:06;16.07;;;14.87;;
22826;SDS011;11580;52.562;13.418;2023-06-22T03:27:42;16.27;;;15.07;;
22826;SDS011;11580;52.562;13.418;2023-06-22T03:30:10;17.07;;;15.67;;
22826;SDS011;11580;52.562;13.418;2023-06-22T03:32:38;15.60;;;14.37;;
22826;SDS011;11580;52.562;13.418;2023-06-22T03:35:06;15.50;;;14.13;;
22826;SDS011;11580;52.562;13.418;2023-06-22T03:37:36;16.27;;;15.07;;
22826;SDS011;11580;52.562;13.418;2023-06-22T03:40:04;15.27;;;14.17;;
22826;SDS011;11580;52.562;13.418;2023-06-22T03:42:34;15.77;;;14.47;;
22826;SDS011;11580;52.562;13.418;2023-06-22T03:45:03;14.10;;;13.20;;
22826;SDS011;11580;52.562;13.418;2023-06-22T03:47:32;15.00;;;13.80;;
22826;SDS011;11580;52.562;13.418;2023-06-22T03:49:59;13.23;;;12.33;;
22826;SDS011;11580;52.562;13.418;2023-06-22T03:52:28;13.60;;;12.60;;
22826;SDS011;11580;52.562;13.418;2023-06-22T03:54:56;14.83;;;13.73;;
22826;SDS011;11580;52.562;13.418;2023-06-22T03:57:23;13.00;;;12.10;;
22826;SDS011;11580;52.562;13.418;2023-06-22T03:59:50;13.67;;;12.67;;
22826;SDS011;11580;52.562;13.418;2023-06-22T04:02:18;12.93;;;12.07;;
22826;SDS011;11580;52.562;13.418;2023-06-22T04:04:46;12.63;;;11.73;;
22826;SDS011;11580;52.562;13.418;2023-06-22T04:07:13;12.90;;;12.00;;
22826;SDS011;11580;52.562;13.418;2023-06-22T04:09:40;12.90;;;11.97;;
22826;SDS011;11580;52.562;13.418;2023-06-22T04:12:07;11.60;;;10.80;;
22826;SDS011;11580;52.562;13.418;2023-06-22T04:14:35;12.37;;;11.57;;
22826;SDS011;11580;52.562;13.418;2023-06-22T04:17:02;11.37;;;10.67;;
22826;SDS011;11580;52.562;13.418;2023-06-22T04:19:31;11.30;;;10.60;;
22826;SDS011;11580;52.562;13.418;2023-06-22T04:21:58;13.17;;;12.27;;
22826;SDS011;11580;52.562;13.418;2023-06-22T04:24:26;11.87;;;11.00;;
22826;SDS011;11580;52.562;13.418;2023-06-22T04:26:53;11.10;;;10.40;;
22826;SDS011;11580;52.562;13.418;2023-06-22T04:29:20;11.20;;;10.50;;
22826;SDS011;11580;52.562;13.418;2023-06-22T04:31:55;11.30;;;10.60;;
22826;SDS011;11580;52.562;13.418;2023-06-22T04:34:23;11.33;;;10.63;;
22826;SDS011;11580;52.562;13.418;2023-06-22T04:36:53;11.00;;;10.20;;
22826;SDS011;11580;52.562;13.418;2023-06-22T04:39:21;11.43;;;10.50;;
22826;SDS011;11580;52.562;13.418;2023-06-22T04:41:49;10.37;;;9.67;;
22826;SDS011;11580;52.562;13.418;2023-06-22T04:44:17;11.43;;;10.63;;
22826;SDS011;11580;52.562;13.418;2023-06-22T04:46:50;10.33;;;9.53;;
22826;SDS011;11580;52.562;13.418;2023-06-22T04:49:19;9.90;;;9.20;;
22826;SDS011;11580;52.562;13.418;2023-06-22T04:51:47;9.30;;;8.73;;
22826;SDS011;11580;52.562;13.418;2023-06-22T04:54:18;10.13;;;9.50;;
22826;SDS011;11580;52.562;13.418;2023-06-22T04:56:45;9.23;;;8.53;;
22826;SDS011;11580;52.562;13.418;2023-06-22T04:59:13;8.20;;;7.70;;
22826;SDS011;11580;52.562;13.418;2023-06-22T05:01:43;7.40;;;6.90;;
22826;SDS011;11580;52.562;13.418;2023-06-22T05:04:11;7.33;;;6.93;;
22826;SDS011;11580;52.562;13.418;2023-06-22T05:06:38;6.53;;;6.07;;
22826;SDS011;11580;52.562;13.418;2023-06-22T05:09:05;6.00;;;5.60;;
22826;SDS011;11580;52.562;13.418;2023-06-22T05:11:34;6.33;;;5.97;;
22826;SDS011;11580;52.562;13.418;2023-06-22T05:14:01;7.43;;;6.60;;
22826;SDS011;11580;52.562;13.418;2023-06-22T05:16:28;6.23;;;5.77;;
22826;SDS011;11580;52.562;13.418;2023-06-22T05:18:55;6.63;;;6.13;;
22826;SDS011;11580;52.562;13.418;2023-06-22T05:21:23;5.47;;;5.17;;
22826;SDS011;11580;52.562;13.418;2023-06-22T05:23:53;5.43;;;5.10;;
22826;SDS011;11580;52.562;13.418;2023-06-22T05:26:21;4.97;;;4.67;;
22826;SDS011;11580;52.562;13.418;2023-06-22T05:28:50;5.00;;;4.60;;
22826;SDS011;11580;52.562;13.418;2023-06-22T05:31:17;5.03;;;4.70;;
22826;SDS011;11580;52.562;13.418;2023-06-22T05:33:46;4.90;;;4.60;;
22826;SDS011;11580;52.562;13.418;2023-06-22T05:36:14;4.43;;;4.13;;
22826;SDS011;11580;52.562;13.418;2023-06-22T05:38:41;4.60;;;4.30;;
22826;SDS011;11580;52.562;13.418;2023-06-22T05:41:08;4.20;;;3.90;;
22826;SDS011;11580;52.562;13.418;2023-06-22T05:43:36;4.03;;;3.73;;
22826;SDS011;11580;52.562;13.418;2023-06-22T05:46:04;4.43;;;4.13;;
22826;SDS011;11580;52.562;13.418;2023-06-22T05:48:31;4.07;;;3.77;;
22826;SDS011;11580;52.562;13.418;2023-06-22T05:50:59;4.13;;;3.93;;
22826;SDS011;11580;52.562;13.418;2023-06-22T05:53:26;4.50;;;4.20;;
22826;SDS011;11580;52.562;13.418;2023-06-22T05:55:53;4.20;;;3.90;;
22826;SDS011;11580;52.562;13.418;2023-06-22T05:58:20;4.80;;;4.37;;
22826;SDS011;11580;52.562;13.418;2023-06-22T06:00:48;4.17;;;3.87;;
22826;SDS011;11580;52.562;13.418;2023-06-22T06:03:17;4.07;;;3.77;;
22826;SDS011;11580;52.562;13.418;2023-06-22T06:05:44;3.70;;;3.50;;
22826;SDS011;11580;52.562;13.418;2023-06-22T06:08:11;4.27;;;3.97;;
22826;SDS011;11580;52.562;13.418;2023-06-22T06:10:38;4.23;;;3.87;;
22826;SDS011;11580;52.562;13.418;2023-06-22T06:13:06;4.40;;;4.10;;
22826;SDS011;11580;52.562;13.418;2023-06-22T06:15:33;3.93;;;3.63;;
22826;SDS011;11580;52.562;13.418;2023-06-22T06:18:01;4.83;;;4.43;;
22826;SDS011;11580;52.562;13.418;2023-06-22T06:20:31;4.30;;;3.90;;
22826;SDS011;11580;52.562;13.418;2023-06-22T06:22:58;5.33;;;4.47;;
22826;SDS011;11580;52.562;13.418;2023-06-22T06:25:26;5.10;;;4.70;;
22826;SDS011;11580;52.562;13.418;2023-06-22T06:27:53;4.73;;;4.43;;
22826;SDS011;11580;52.562;13.418;2023-06-22T06:30:20;5.33;;;5.03;;
22826;SDS011;11580;52.562;13.418;2023-06-22T06:32:48;5.27;;;4.90;;
22826;SDS011;11580;52.562;13.418;2023-06-22T06:35:16;4.43;;;4.13;;
22826;SDS011;11580;52.562;13.418;2023-06-22T06:37:45;5.70;;;5.20;;
22826;SDS011;11580;52.562;13.418;2023-06-22T06:40:17;5.00;;;4.60;;
22826;SDS011;11580;52.562;13.418;2023-06-22T06:42:45;5.33;;;5.00;;
22826;SDS011;11580;52.562;13.418;2023-06-22T06:45:16;5.60;;;5.20;;
22826;SDS011;11580;52.562;13.418;2023-06-22T06:47:46;5.30;;;4.90;;
22826;SDS011;11580;52.562;13.418;2023-06-22T06:50:13;5.30;;;4.90;;
22826;SDS011;11580;52.562;13.418;2023-06-22T06:52:41;4.33;;;4.03;;
22826;SDS011;11580;52.562;13.418;2023-06-22T06:55:10;4.80;;;4.40;;
22826;SDS011;11580;52.562;13.418;2023-06-22T06:57:39;4.23;;;3.93;;
22826;SDS011;11580;52.562;13.418;2023-06-22T07:00:08;5.10;;;4.70;;
22826;SDS011;11580;52.562;13.418;2023-06-22T07:02:39;5.40;;;4.90;;
22826;SDS011;11580;52.562;13.418;2023-06-22T07:05:07;5.10;;;4.80;;
22826;SDS011;11580;52.562;13.418;2023-06-22T07:07:35;4.67;;;4.37;;
22826;SDS011;11580;52.562;13.418;2023-06-22T07:10:03;4.10;;;3.80;;
22826;SDS011;11580;52.562;13.418;2023-06-22T07:12:33;4.63;;;4.03;;
22826;SDS011;11580;52.562;13.418;2023-06-22T07:15:01;4.20;;;3.90;;
22826;SDS011;11580;52.562;13.418;2023-06-22T07:17:30;4.43;;;4.03;;
22826;SDS011;11580;52.562;13.418;2023-06-22T07:19:57;4.83;;;4.40;;
22826;SDS011;11580;52.562;13.418;2023-06-22T07:22:24;4.27;;;3.90;;
22826;SDS011;11580;52.562;13.418;2023-06-22T07:24:52;4.20;;;3.60;;
22826;SDS011;11580;52.562;13.418;2023-06-22T07:27:19;4.90;;;4.50;;
22826;SDS011;11580;52.562;13.418;2023-06-22T07:29:47;3.70;;;3.20;;
22826;SDS011;11580;52.562;13.418;2023-06-22T07:32:15;4.10;;;3.80;;
22826;SDS011;11580;52.562;13.418;2023-06-22T07:34:42;3.97;;;3.60;;
22826;SDS011;11580;52.562;13.418;2023-06-22T07:37:10;3.97;;;3.77;;
22826;SDS011;11580;52.562;13.418;2023-06-22T07:39:37;3.67;;;3.37;;
22826;SDS011;11580;52.562;13.418;2023-06-22T07:42:04;2.83;;;2.63;;
22826;SDS011;11580;52.562;13.418;2023-06-22T07:44:32;3.30;;;3.00;;
22826;SDS011;11580;52.562;13.418;2023-06-22T07:47:00;3.83;;;3.53;;
22826;SDS011;11580;52.562;13.418;2023-06-22T07:49:27;2.90;;;2.70;;
22826;SDS011;11580;52.562;13.418;2023-06-22T07:51:55;3.27;;;3.03;;
22826;SDS011;11580;52.562;13.418;2023-06-22T07:54:22;3.00;;;2.80;;
22826;SDS011;11580;52.562;13.418;2023-06-22T07:56:49;4.67;;;3.20;;
22826;SDS011;11580;52.562;13.418;2023-06-22T07:59:18;3.40;;;3.10;;
22826;SDS011;11580;52.562;13.418;2023-06-22T08:01:45;2.93;;;2.73;;
22826;SDS011;11580;52.562;13.418;2023-06-22T08:04:15;3.40;;;3.20;;
22826;SDS011;11580;52.562;13.418;2023-06-22T08:06:42;2.90;;;2.70;;
22826;SDS011;11580;52.562;13.418;2023-06-22T08:09:10;2.90;;;2.70;;
22826;SDS011;11580;52.562;13.418;2023-06-22T08:11:37;2.93;;;2.70;;
22826;SDS011;11580;52.562;13.418;2023-06-22T08:14:04;3.23;;;3.03;;
22826;SDS011;11580;52.562;13.418;2023-06-22T08:16:31;3.40;;;3.10;;
22826;SDS011;11580;52.562;13.418;2023-06-22T08:18:59;3.07;;;2.87;;
22826;SDS011;11580;52.562;13.418;2023-06-22T08:21:27;3.40;;;3.20;;
22826;SDS011;11580;52.562;13.418;2023-06-22T08:23:54;3.33;;;3.13;;
22826;SDS011;11580;52.562;13.418;2023-06-22T08:26:21;3.40;;;3.10;;
22826;SDS011;11580;52.562;13.418;2023-06-22T08:28:49;2.83;;;2.63;;
22826;SDS011;11580;52.562;13.418;2023-06-22T08:31:16;2.50;;;2.30;;
22826;SDS011;11580;52.562;13.418;2023-06-22T08:33:43;2.73;;;2.50;;
22826;SDS011;11580;52.562;13.418;2023-06-22T08:36:11;3.07;;;2.87;;
22826;SDS011;11580;52.562;13.418;2023-06-22T08:38:40;3.10;;;2.90;;
22826;SDS011;11580;52.562;13.418;2023-06-22T08:41:07;3.20;;;3.00;;
22826;SDS011;11580;52.562;13.418;2023-06-22T08:43:35;2.97;;;2.77;;
22826;SDS011;11580;52.562;13.418;2023-06-22T08:46:02;2.97;;;2.77;;
22826;SDS011;11580;52.562;13.418;2023-06-22T08:48:29;3.03;;;2.83;;
22826;SDS011;11580;52.562;13.418;2023-06-22T08:50:56;3.40;;;3.20;;
22826;SDS011;11580;52.562;13.418;2023-06-22T08:53:23;2.53;;;2.43;;
22826;SDS011;11580;52.562;13.418;2023-06-22T08:55:52;3.10;;;2.83;;
22826;SDS011;11580;52.562;13.418;2023-06-22T08:58:19;3.33;;;3.03;;
22826;SDS011;11580;52.562;13.418;2023-06-22T09:00:46;3.27;;;3.07;;
22826;SDS011;11580;52.562;13.418;2023-06-22T09:03:14;3.20;;;3.00;;
22826;SDS011;11580;52.562;13.418;2023-06-22T09:05:42;3.63;;;3.33;;
22826;SDS011;11580;52.562;13.418;2023-06-22T09:08:10;3.70;;;3.40;;
22826;SDS011;11580;52.562;13.418;2023-06-22T09:10:38;3.13;;;2.93;;
22826;SDS011;11580;52.562;13.418;2023-06-22T09:13:06;4.53;;;4.13;;
22826;SDS011;11580;52.562;13.418;2023-06-22T09:15:33;3.40;;;3.20;;
22826;SDS011;11580;52.562;13.418;2023-06-22T09:18:01;3.70;;;3.50;;
22826;SDS011;11580;52.562;13.418;2023-06-22T09:20:28;3.80;;;3.60;;
22826;SDS011;11580;52.562;13.418;2023-06-22T09:22:56;4.23;;;3.90;;
22826;SDS011;11580;52.562;13.418;2023-06-22T09:25:23;3.80;;;3.60;;
22826;SDS011;11580;52.562;13.418;2023-06-22T09:27:51;4.40;;;4.00;;
22826;SDS011;11580;52.562;13.418;2023-06-22T09:30:19;3.83;;;3.63;;
22826;SDS011;11580;52.562;13.418;2023-06-22T09:32:47;3.97;;;3.67;;
22826;SDS011;11580;52.562;13.418;2023-06-22T09:35:15;3.63;;;3.43;;
22826;SDS011;11580;52.562;13.418;2023-06-22T09:37:42;6.43;;;3.97;;
22826;SDS011;11580;52.562;13.418;2023-06-22T09:40:10;3.90;;;3.70;;
22826;SDS011;11580;52.562;13.418;2023-06-22T09:42:41;3.70;;;3.40;;
22826;SDS011;11580;52.562;13.418;2023-06-22T09:45:09;3.37;;;3.17;;
22826;SDS011;11580;52.562;13.418;2023-06-22T09:47:37;3.00;;;2.80;;
22826;SDS011;11580;52.562;13.418;2023-06-22T09:50:05;3.27;;;3.07;;
22826;SDS011;11580;52.562;13.418;2023-06-22T09:52:33;3.23;;;3.03;;
22826;SDS011;11580;52.562;13.418;2023-06-22T09:55:01;4.33;;;4.00;;
22826;SDS011;11580;52.562;13.418;2023-06-22T09:57:29;3.70;;;3.40;;
22826;SDS011;11580;52.562;13.418;2023-06-22T09:59:56;3.47;;;3.27;;
22826;SDS011;11580;52.562;13.418;2023-06-22T10:02:24;3.77;;;3.47;;
22826;SDS011;11580;52.562;13.418;2023-06-22T10:04:52;3.67;;;3.37;;
22826;SDS011;11580;52.562;13.418;2023-06-22T10:07:21;3.23;;;3.03;;
22826;SDS011;11580;52.562;13.418;2023-06-22T10:09:49;3.20;;;2.97;;
22826;SDS011;11580;52.562;13.418;2023-06-22T10:12:16;3.43;;;3.13;;
22826;SDS011;11580;52.562;13.418;2023-06-22T10:14:43;3.10;;;2.90;;
22826;SDS011;11580;52.562;13.418;2023-06-22T10:17:10;3.50;;;3.23;;
22826;SDS011;11580;52.562;13.418;2023-06-22T10:19:37;3.53;;;3.33;;
22826;SDS011;11580;52.562;13.418;2023-06-22T10:22:08;3.77;;;3.47;;
22826;SDS011;11580;52.562;13.418;2023-06-22T10:24:35;3.90;;;3.47;;
22826;SDS011;11580;52.562;13.418;2023-06-22T10:27:03;3.90;;;3.60;;
22826;SDS011;11580;52.562;13.418;2023-06-22T10:29:32;3.80;;;3.50;;
22826;SDS011;11580;52.562;13.418;2023-06-22T10:31:59;3.63;;;3.43;;
22826;SDS011;11580;52.562;13.418;2023-06-22T10:34:26;4.30;;;3.23;;
22826;SDS011;11580;52.562;13.418;2023-06-22T10:36:53;3.57;;;3.23;;
22826;SDS011;11580;52.562;13.418;2023-06-22T10:39:21;3.93;;;3.73;;
22826;SDS011;11580;52.562;13.418;2023-06-22T10:41:49;3.80;;;3.50;;
22826;SDS011;11580;52.562;13.418;2023-06-22T10:44:16;4.40;;;4.00;;
22826;SDS011;11580;52.562;13.418;2023-06-22T10:46:43;4.17;;;3.87;;
22826;SDS011;11580;52.562;13.418;2023-06-22T10:49:10;3.97;;;3.70;;
22826;SDS011;11580;52.562;13.418;2023-06-22T10:51:38;4.60;;;4.30;;
22826;SDS011;11580;52.562;13.418;2023-06-22T10:54:05;4.40;;;4.00;;
22826;SDS011;11580;52.562;13.418;2023-06-22T10:56:33;4.17;;;3.87;;
22826;SDS011;11580;52.562;13.418;2023-06-22T10:59:00;3.90;;;3.60;;
22826;SDS011;11580;52.562;13.418;2023-06-22T11:01:28;3.33;;;3.13;;
22826;SDS011;11580;52.562;13.418;2023-06-22T11:03:56;3.47;;;3.27;;
22826;SDS011;11580;52.562;13.418;2023-06-22T11:06:23;3.67;;;3.47;;
22826;SDS011;11580;52.562;13.418;2023-06-22T11:08:50;4.17;;;3.60;;
22826;SDS011;11580;52.562;13.418;2023-06-22T11:11:17;4.40;;;4.10;;
22826;SDS011;11580;52.562;13.418;2023-06-22T11:13:46;3.90;;;3.70;;
22826;SDS011;11580;52.562;13.418;2023-06-22T11:16:13;3.93;;;3.63;;
22826;SDS011;11580;52.562;13.418;2023-06-22T11:18:41;4.23;;;3.83;;
22826;SDS011;11580;52.562;13.418;2023-06-22T11:21:08;4.10;;;3.80;;
22826;SDS011;11580;52.562;13.418;2023-06-22T11:23:35;3.83;;;3.63;;
22826;SDS011;11580;52.562;13.418;2023-06-22T11:26:02;4.60;;;4.30;;
22826;SDS011;11580;52.562;13.418;2023-06-22T11:28:29;4.70;;;4.40;;
22826;SDS011;11580;52.562;13.418;2023-06-22T11:30:58;3.87;;;3.60;;
22826;SDS011;11580;52.562;13.418;2023-06-22T11:33:25;3.73;;;3.43;;
22826;SDS011;11580;52.562;13.418;2023-06-22T11:35:52;3.90;;;3.60;;
22826;SDS011;11580;52.562;13.418;2023-06-22T11:38:21;4.30;;;4.00;;
22826;SDS011;11580;52.562;13.418;2023-06-22T11:40:48;4.50;;;4.20;;
22826;SDS011;11580;52.562;13.418;2023-06-22T11:43:16;4.40;;;4.10;;
22826;SDS011;11580;52.562;13.418;2023-06-22T11:45:43;4.30;;;4.00;;
22826;SDS011;11580;52.562;13.418;2023-06-22T11:48:11;4.27;;;3.97;;
22826;SDS011;11580;52.562;13.418;2023-06-22T11:50:38;4.23;;;3.93;;
22826;SDS011;11580;52.562;13.418;2023-06-22T11:53:06;4.13;;;3.93;;
22826;SDS011;11580;52.562;13.418;2023-06-22T11:55:33;4.40;;;4.10;;
22826;SDS011;11580;52.562;13.418;2023-06-22T11:58:00;4.10;;;3.80;;
22826;SDS011;11580;52.562;13.418;2023-06-22T12:00:29;4.27;;;4.07;;
22826;SDS011;11580;52.562;13.418;2023-06-22T12:02:56;4.30;;;4.00;;
22826;SDS011;11580;52.562;13.418;2023-06-22T12:05:24;4.27;;;4.07;;
22826;SDS011;11580;52.562;13.418;2023-06-22T12:07:52;4.00;;;3.80;;
22826;SDS011;11580;52.562;13.418;2023-06-22T12:10:20;4.00;;;3.60;;
22826;SDS011;11580;52.562;13.418;2023-06-22T12:12:50;4.07;;;3.87;;
22826;SDS011;11580;52.562;13.418;2023-06-22T12:15:17;3.83;;;3.63;;
22826;SDS011;11580;52.562;13.418;2023-06-22T12:17:44;4.50;;;4.30;;
22826;SDS011;11580;52.562;13.418;2023-06-22T12:20:13;4.27;;;3.97;;
22826;SDS011;11580;52.562;13.418;2023-06-22T12:22:42;4.20;;;3.90;;
22826;SDS011;11580;52.562;13.418;2023-06-22T12:25:09;4.20;;;3.97;;
22826;SDS011;11580;52.562;13.418;2023-06-22T12:27:37;4.63;;;4.33;;
22826;SDS011;11580;52.562;13.418;2023-06-22T12:30:05;5.10;;;4.60;;
22826;SDS011;11580;52.562;13.418;2023-06-22T12:32:33;4.60;;;4.30;;
22826;SDS011;11580;52.562;13.418;2023-06-22T12:35:00;5.03;;;4.67;;
22826;SDS011;11580;52.562;13.418;2023-06-22T12:37:27;4.73;;;4.33;;
22826;SDS011;11580;52.562;13.418;2023-06-22T12:39:58;4.83;;;4.50;;
22826;SDS011;11580;52.562;13.418;2023-06-22T12:42:25;4.53;;;4.23;;
22826;SDS011;11580;52.562;13.418;2023-06-22T12:44:53;4.60;;;4.30;;
22826;SDS011;11580;52.562;13.418;2023-06-22T12:47:20;4.50;;;4.20;;
22826;SDS011;11580;52.562;13.418;2023-06-22T12:49:47;4.60;;;4.20;;
22826;SDS011;11580;52.562;13.418;2023-06-22T12:52:15;4.90;;;4.60;;
22826;SDS011;11580;52.562;13.418;2023-06-22T12:54:42;4.83;;;4.53;;
22826;SDS011;11580;52.562;13.418;2023-06-22T12:57:11;4.40;;;4.00;;
22826;SDS011;11580;52.562;13.418;2023-06-22T12:59:38;4.57;;;4.37;;
22826;SDS011;11580;52.562;13.418;2023-06-22T13:02:05;4.53;;;4.23;;
22826;SDS011;11580;52.562;13.418;2023-06-22T13:04:33;5.10;;;4.80;;
22826;SDS011;11580;52.562;13.418;2023-06-22T13:07:00;5.20;;;4.80;;
22826;SDS011;11580;52.562;13.418;2023-06-22T13:09:27;4.97;;;4.67;;
22826;SDS011;11580;52.562;13.418;2023-06-22T13:11:54;5.13;;;4.83;;
22826;SDS011;11580;52.562;13.418;2023-06-22T13:14:23;5.87;;;5.50;;
22826;SDS011;11580;52.562;13.418;2023-06-22T13:16:50;5.50;;;5.17;;
22826;SDS011;11580;52.562;13.418;2023-06-22T13:19:17;5.20;;;4.80;;
22826;SDS011;11580;52.562;13.418;2023-06-22T13:21:44;6.10;;;5.70;;
22826;SDS011;11580;52.562;13.418;2023-06-22T13:24:11;5.83;;;5.43;;
22826;SDS011;11580;52.562;13.418;2023-06-22T13:26:38;5.20;;;4.90;;
22826;SDS011;11580;52.562;13.418;2023-06-22T13:29:06;4.77;;;4.47;;
22826;SDS011;11580;52.562;13.418;2023-06-22T13:31:34;4.53;;;4.20;;
22826;SDS011;11580;52.562;13.418;2023-06-22T13:34:01;4.93;;;4.63;;
22826;SDS011;11580;52.562;13.418;2023-06-22T13:36:29;6.50;;;5.23;;
22826;SDS011;11580;52.562;13.418;2023-06-22T13:38:56;5.10;;;4.80;;
22826;SDS011;11580;52.562;13.418;2023-06-22T13:41:24;5.37;;;5.07;;
22826;SDS011;11580;52.562;13.418;2023-06-22T13:43:51;4.73;;;4.43;;
22826;SDS011;11580;52.562;13.418;2023-06-22T13:46:18;5.70;;;5.30;;
22826;SDS011;11580;52.562;13.418;2023-06-22T13:48:47;5.13;;;4.83;;
22826;SDS011;11580;52.562;13.418;2023-06-22T13:51:14;4.53;;;4.23;;
22826;SDS011;11580;52.562;13.418;2023-06-22T13:53:41;5.70;;;5.40;;
22826;SDS011;11580;52.562;13.418;2023-06-22T13:56:08;5.10;;;4.80;;
22826;SDS011;11580;52.562;13.418;2023-06-22T13:58:36;5.20;;;4.90;;
22826;SDS011;11580;52.562;13.418;2023-06-22T14:01:03;5.20;;;4.90;;
22826;SDS011;11580;52.562;13.418;2023-06-22T14:03:30;5.60;;;5.20;;
22826;SDS011;11580;52.562;13.418;2023-06-22T14:05:58;5.70;;;5.40;;
22826;SDS011;11580;52.562;13.418;2023-06-22T14:08:25;5.40;;;5.00;;
22826;SDS011;11580;52.562;13.418;2023-06-22T14:10:53;6.13;;;5.70;;
22826;SDS011;11580;52.562;13.418;2023-06-22T14:13:20;5.07;;;4.77;;
22826;SDS011;11580;52.562;13.418;2023-06-22T14:15:47;6.10;;;5.70;;
22826;SDS011;11580;52.562;13.418;2023-06-22T14:18:17;5.37;;;5.03;;
22826;SDS011;11580;52.562;13.418;2023-06-22T14:20:44;6.60;;;6.20;;
22826;SDS011;11580;52.562;13.418;2023-06-22T14:23:14;6.53;;;5.93;;
22826;SDS011;11580;52.562;13.418;2023-06-22T14:25:41;5.50;;;5.20;;
22826;SDS011;11580;52.562;13.418;2023-06-22T14:28:08;6.07;;;5.67;;
22826;SDS011;11580;52.562;13.418;2023-06-22T14:30:35;5.73;;;5.17;;
22826;SDS011;11580;52.562;13.418;2023-06-22T14:33:03;6.13;;;5.73;;